createdAt,value
2016-06-12T09:42:04.039Z,21.51
2016-06-12T09:43:03.776Z,21.52
2016-06-12T09:44:03.765Z,21.46
2016-06-12T09:45:03.955Z,21.55
2016-06-12T09:46:03.755Z,21.53
2016-06-12T09:47:03.945Z,21.45
2016-06-12T09:48:03.933Z,21.43
2016-06-12T09:49:03.733Z,21.51
2016-06-12T09:50:03.720Z,21.51
2016-06-12T09:51:03.724Z,21.53
2016-06-12T09:52:03.773Z,21.53
2016-06-12T09:53:03.713Z,21.58
2016-06-12T09:54:03.499Z,21.62
2016-06-12T09:55:03.299Z,21.66
2016-06-12T09:56:03.285Z,21.56
2016-06-12T09:57:03.882Z,21.64
2016-06-12T09:58:03.479Z,21.7
2016-06-12T09:59:03.279Z,21.76
2016-06-12T10:00:03.485Z,21.67
2016-06-12T10:01:03.692Z,21.78
2016-06-12T10:02:03.460Z,21.74
2016-06-12T10:03:03.682Z,21.82
2016-06-12T10:04:03.466Z,21.93
2016-06-12T10:05:03.672Z,21.86
2016-06-12T10:06:03.661Z,21.94
2016-06-12T10:07:04.475Z,21.94
2016-06-12T10:08:03.713Z,22.02
2016-06-12T10:09:03.670Z,22.07
2016-06-12T10:10:03.470Z,22.05
2016-06-12T10:11:03.659Z,22.11
2016-06-12T10:12:03.460Z,22.11
2016-06-12T10:13:03.666Z,22.27
2016-06-12T10:14:03.857Z,22.27
2016-06-12T10:15:03.641Z,22.24
2016-06-12T10:16:03.659Z,22.33
2016-06-12T10:17:03.647Z,22.38
2016-06-12T10:18:03.447Z,22.44
2016-06-12T10:19:03.451Z,22.54
2016-06-12T10:20:03.640Z,22.55
2016-06-12T10:21:03.846Z,22.51
2016-06-12T10:22:03.647Z,22.54
2016-06-12T10:23:03.635Z,22.57
2016-06-12T10:24:03.638Z,22.66
2016-06-12T10:25:03.641Z,22.69
2016-06-12T10:26:03.644Z,22.64
2016-06-12T10:27:03.850Z,22.64
2016-06-12T10:28:03.650Z,22.7
2016-06-12T10:29:03.840Z,22.81
2016-06-12T10:30:03.859Z,22.78
2016-06-12T10:31:03.847Z,22.76
2016-06-12T10:32:03.647Z,22.88
2016-06-12T10:33:03.447Z,22.92
2016-06-12T10:34:03.636Z,22.89
2016-06-12T10:35:03.453Z,22.88
2016-06-12T10:36:03.643Z,22.92
2016-06-12T10:37:03.646Z,23
2016-06-12T10:38:03.477Z,22.92
2016-06-12T10:39:03.449Z,23
2016-06-12T10:40:03.640Z,23.14
2016-06-12T10:41:03.658Z,23.07
2016-06-12T10:42:03.896Z,23.09
2016-06-12T10:43:03.680Z,23.14
2016-06-12T10:44:03.636Z,23.16
2016-06-12T10:45:03.436Z,23.18
2016-06-12T10:46:03.642Z,23.24
2016-06-12T10:47:03.645Z,23.22
2016-06-12T10:48:03.649Z,23.29
2016-06-12T10:49:03.652Z,23.29
2016-06-12T10:50:03.654Z,23.32
2016-06-12T10:51:03.439Z,23.37
2016-06-12T10:52:03.489Z,23.32
2016-06-12T10:53:04.069Z,23.4
2016-06-12T10:54:03.230Z,23.37
2016-06-12T10:55:03.654Z,23.38
2016-06-12T10:56:03.704Z,23.4
2016-06-12T10:57:03.692Z,23.56
2016-06-12T10:58:03.852Z,23.42
2016-06-12T10:59:03.651Z,23.59
2016-06-12T11:00:03.654Z,23.47
2016-06-12T11:01:03.641Z,23.53
2016-06-12T11:02:03.645Z,23.53
2016-06-12T11:03:03.851Z,23.52
2016-06-12T11:04:03.463Z,23.55
2016-06-12T11:05:03.498Z,23.53
2016-06-12T11:06:03.235Z,23.55
2016-06-12T11:07:03.862Z,23.62
2016-06-12T11:08:03.241Z,23.62
2016-06-12T11:09:03.447Z,23.6
2016-06-12T11:10:03.654Z,23.62
2016-06-12T11:11:03.453Z,23.64
2016-06-12T11:12:03.456Z,23.62
2016-06-12T11:13:03.663Z,23.62
2016-06-12T11:14:03.667Z,23.72
2016-06-12T11:15:03.451Z,23.66
2016-06-12T11:16:03.673Z,23.66
2016-06-12T11:17:03.863Z,23.7
2016-06-12T11:18:03.865Z,23.72
2016-06-12T11:19:03.869Z,23.74
2016-06-12T11:20:03.466Z,23.78
2016-06-12T11:21:03.875Z,23.78
2016-06-12T11:22:03.878Z,23.82
2016-06-12T11:23:04.115Z,23.85
2016-06-12T11:24:03.462Z,23.85
2016-06-12T11:25:03.306Z,23.85
2016-06-12T11:26:03.718Z,23.82
2016-06-12T11:27:03.877Z,23.87
2016-06-12T11:28:03.677Z,23.9
2016-06-12T11:29:03.681Z,23.85
2016-06-12T11:30:03.871Z,23.84
2016-06-12T11:31:03.668Z,23.92
2016-06-12T11:32:03.671Z,23.94
2016-06-12T11:33:03.893Z,23.92
2016-06-12T11:34:03.475Z,23.99
2016-06-12T11:35:03.681Z,23.85
2016-06-12T11:36:03.277Z,23.99
2016-06-12T11:37:03.265Z,23.97
2016-06-12T11:38:03.831Z,23.96
2016-06-12T11:39:03.459Z,24
2016-06-12T11:40:03.478Z,24
2016-06-12T11:41:03.684Z,24.03
2016-06-12T11:42:03.733Z,24.04
2016-06-12T11:43:03.267Z,24.04
2016-06-12T11:44:03.880Z,24.02
2016-06-12T11:45:03.695Z,24.14
2016-06-12T11:46:03.683Z,24.03
2016-06-12T11:47:03.686Z,24.03
2016-06-12T11:48:03.893Z,24.04
2016-06-12T11:49:03.489Z,24.07
2016-06-12T11:50:03.695Z,24.14
2016-06-12T11:51:03.714Z,24.04
2016-06-12T11:52:03.701Z,24.09
2016-06-12T11:53:03.767Z,24.15
2016-06-12T11:54:03.896Z,24.12
2016-06-12T11:55:03.695Z,24.22
2016-06-12T11:56:03.902Z,24.15
2016-06-12T11:57:03.905Z,24.26
2016-06-12T11:58:03.704Z,24.22
2016-06-12T11:59:03.910Z,24.21
2016-06-12T12:00:03.695Z,24.24
2016-06-12T12:01:03.495Z,24.22
2016-06-12T12:02:03.701Z,24.29
2016-06-12T12:03:03.704Z,24.32
2016-06-12T12:04:03.707Z,24.33
2016-06-12T12:05:03.507Z,24.34
2016-06-12T12:06:03.510Z,24.26
2016-06-12T12:07:03.701Z,24.36
2016-06-12T12:08:03.719Z,24.32
2016-06-12T12:09:03.503Z,24.33
2016-06-12T12:10:03.710Z,24.36
2016-06-12T12:11:03.714Z,24.34
2016-06-12T12:12:03.559Z,24.32
2016-06-12T12:13:03.719Z,24.39
2016-06-12T12:14:03.707Z,24.34
2016-06-12T12:15:03.569Z,24.37
2016-06-12T12:16:03.510Z,24.33
2016-06-12T12:17:03.514Z,24.4
2016-06-12T12:18:03.516Z,24.37
2016-06-12T12:19:03.519Z,24.36
2016-06-12T12:20:03.726Z,24.34
2016-06-12T12:21:03.526Z,24.44
2016-06-12T12:22:03.732Z,24.42
2016-06-12T12:23:03.797Z,24.36
2016-06-12T12:24:03.925Z,24.48
2016-06-12T12:25:03.724Z,24.48
2016-06-12T12:26:03.728Z,24.48
2016-06-12T12:27:03.747Z,24.46
2016-06-12T12:28:03.530Z,24.49
2016-06-12T12:29:03.534Z,24.51
2016-06-12T12:30:03.756Z,24.48
2016-06-12T12:31:03.384Z,24.45
2016-06-12T12:32:03.529Z,24.44
2016-06-12T12:33:03.531Z,24.49
2016-06-12T12:34:03.941Z,24.48
2016-06-12T12:35:03.538Z,24.54
2016-06-12T12:36:03.946Z,24.54
2016-06-12T12:37:03.746Z,24.48
2016-06-12T12:38:03.405Z,24.58
2016-06-12T12:39:03.736Z,24.56
2016-06-12T12:40:03.740Z,24.55
2016-06-12T12:41:03.759Z,24.58
2016-06-12T12:42:03.808Z,24.48
2016-06-12T12:43:03.952Z,24.56
2016-06-12T12:44:03.971Z,24.61
2016-06-12T12:45:03.787Z,24.59
2016-06-12T12:46:03.555Z,24.58
2016-06-12T12:47:03.980Z,24.58
2016-06-12T12:48:03.967Z,24.61
2016-06-12T12:49:03.970Z,24.59
2016-06-12T12:50:03.568Z,24.61
2016-06-12T12:51:03.774Z,24.55
2016-06-12T12:52:03.761Z,24.59
2016-06-12T12:53:04.749Z,24.61
2016-06-12T12:54:03.439Z,24.59
2016-06-12T12:55:03.364Z,24.58
2016-06-12T12:56:03.555Z,24.67
2016-06-12T12:57:03.776Z,24.64
2016-06-12T12:58:03.779Z,24.69
2016-06-12T12:59:03.782Z,24.67
2016-06-12T13:00:03.568Z,24.64
2016-06-12T13:01:03.976Z,24.61
2016-06-12T13:02:03.621Z,24.66
2016-06-12T13:03:03.780Z,24.67
2016-06-12T13:04:03.376Z,24.78
2016-06-12T13:05:03.785Z,24.74
2016-06-12T13:06:03.992Z,24.75
2016-06-12T13:07:03.588Z,24.61
2016-06-12T13:08:03.639Z,24.66
2016-06-12T13:09:03.642Z,24.69
2016-06-12T13:10:04.004Z,24.7
2016-06-12T13:11:03.585Z,24.71
2016-06-12T13:12:03.792Z,24.75
2016-06-12T13:13:03.997Z,24.67
2016-06-12T13:14:03.844Z,24.74
2016-06-12T13:15:04.003Z,24.71
2016-06-12T13:16:03.584Z,24.71
2016-06-12T13:17:03.650Z,24.67
2016-06-12T13:18:03.607Z,24.77
2016-06-12T13:19:03.813Z,24.69
2016-06-12T13:20:03.816Z,24.77
2016-06-12T13:21:03.804Z,24.8
2016-06-12T13:22:04.010Z,24.71
2016-06-12T13:23:04.200Z,24.74
2016-06-12T13:24:03.891Z,24.69
2016-06-12T13:25:03.817Z,24.77
2016-06-12T13:26:04.022Z,24.71
2016-06-12T13:27:03.618Z,24.75
2016-06-12T13:28:03.607Z,24.71
2016-06-12T13:29:03.812Z,24.7
2016-06-12T13:30:03.627Z,24.74
2016-06-12T13:31:03.475Z,24.75
2016-06-12T13:32:03.430Z,24.71
2016-06-12T13:33:03.824Z,24.7
2016-06-12T13:34:03.828Z,24.74
2016-06-12T13:35:03.628Z,24.74
2016-06-12T13:36:03.630Z,24.78
2016-06-12T13:37:04.040Z,24.75
2016-06-12T13:38:04.121Z,24.82
2016-06-12T13:39:04.516Z,24.78
2016-06-12T13:40:03.644Z,24.83
2016-06-12T13:41:03.646Z,24.8
2016-06-12T13:42:03.430Z,24.85
2016-06-12T13:43:03.636Z,24.83
2016-06-12T13:44:03.639Z,24.86
2016-06-12T13:45:04.049Z,24.87
2016-06-12T13:46:03.646Z,24.83
2016-06-12T13:47:03.649Z,24.89
2016-06-12T13:48:03.683Z,24.87
2016-06-12T13:49:03.639Z,24.86
2016-06-12T13:50:03.643Z,24.87
2016-06-12T13:51:03.849Z,24.89
2016-06-12T13:52:03.650Z,24.87
2016-06-12T13:53:03.652Z,24.89
2016-06-12T13:54:04.405Z,24.9
2016-06-12T13:55:04.065Z,24.9
2016-06-12T13:56:03.662Z,24.89
2016-06-12T13:57:03.648Z,24.9
2016-06-12T13:58:03.668Z,24.87
2016-06-12T13:59:03.717Z,24.9
2016-06-12T14:00:03.658Z,24.9
2016-06-12T14:01:03.677Z,24.92
2016-06-12T14:02:04.086Z,24.97
2016-06-12T14:03:03.870Z,24.86
2016-06-12T14:04:03.670Z,24.86
2016-06-12T14:05:03.876Z,24.85
2016-06-12T14:06:03.879Z,24.86
2016-06-12T14:07:03.882Z,24.92
2016-06-12T14:08:04.166Z,24.85
2016-06-12T14:09:04.560Z,24.78
2016-06-12T14:10:03.673Z,24.77
2016-06-12T14:11:04.097Z,24.74
2016-06-12T14:12:03.881Z,24.8
2016-06-12T14:13:03.681Z,24.75
2016-06-12T14:14:03.904Z,24.7
2016-06-12T14:15:04.095Z,24.74
2016-06-12T14:16:03.488Z,24.7
2016-06-12T14:17:03.897Z,24.74
2016-06-12T14:18:03.697Z,24.74
2016-06-12T14:19:03.685Z,24.82
2016-06-12T14:20:03.891Z,24.71
2016-06-12T14:21:03.706Z,24.7
2016-06-12T14:22:03.709Z,24.74
2016-06-12T14:23:03.853Z,24.75
2016-06-12T14:24:03.779Z,24.7
2016-06-12T14:25:03.500Z,24.75
2016-06-12T14:26:03.909Z,24.7
2016-06-12T14:27:04.116Z,24.75
2016-06-12T14:28:03.916Z,24.83
2016-06-12T14:29:04.122Z,24.74
2016-06-12T14:30:03.968Z,24.7
2016-06-12T14:31:03.722Z,24.74
2016-06-12T14:32:03.928Z,24.74
2016-06-12T14:33:03.932Z,24.74
2016-06-12T14:34:03.919Z,24.7
2016-06-12T14:35:03.921Z,24.82
2016-06-12T14:36:03.738Z,24.75
2016-06-12T14:37:03.928Z,24.8
2016-06-12T14:38:03.930Z,24.67
2016-06-12T14:39:04.200Z,24.71
2016-06-12T14:40:03.718Z,24.83
2016-06-12T14:41:03.720Z,24.71
2016-06-12T14:42:03.943Z,24.8
2016-06-12T14:43:03.931Z,24.71
2016-06-12T14:44:04.137Z,24.69
2016-06-12T14:45:03.937Z,24.69
2016-06-12T14:46:03.940Z,24.64
2016-06-12T14:47:04.146Z,24.69
2016-06-12T14:48:03.743Z,24.67
2016-06-12T14:49:03.730Z,24.63
2016-06-12T14:50:03.952Z,24.63
2016-06-12T14:51:04.159Z,24.63
2016-06-12T14:52:03.754Z,24.67
2016-06-12T14:53:03.946Z,24.59
2016-06-12T14:54:04.168Z,24.63
2016-06-12T14:55:03.561Z,24.63
2016-06-12T14:56:03.955Z,24.58
2016-06-12T14:57:03.958Z,24.58
2016-06-12T14:58:03.555Z,24.56
2016-06-12T14:59:04.167Z,24.61
2016-06-12T15:00:04.170Z,24.59
2016-06-12T15:01:03.954Z,24.49
2016-06-12T15:02:03.785Z,24.58
2016-06-12T15:03:03.977Z,24.56
2016-06-12T15:04:03.776Z,24.46
2016-06-12T15:05:03.966Z,24.51
2016-06-12T15:06:03.969Z,24.46
2016-06-12T15:07:03.566Z,24.48
2016-06-12T15:08:04.179Z,24.46
2016-06-12T15:09:03.995Z,24.48
2016-06-12T15:10:03.967Z,24.45
2016-06-12T15:11:03.985Z,24.51
2016-06-12T15:12:04.004Z,24.45
2016-06-12T15:13:03.976Z,24.37
2016-06-12T15:14:03.979Z,24.34
2016-06-12T15:15:03.982Z,24.33
2016-06-12T15:16:03.782Z,24.44
2016-06-12T15:17:03.785Z,24.34
2016-06-12T15:18:04.006Z,24.4
2016-06-12T15:19:04.010Z,24.39
2016-06-12T15:20:03.982Z,24.36
2016-06-12T15:21:04.204Z,24.36
2016-06-12T15:22:04.004Z,24.39
2016-06-12T15:23:03.788Z,24.34
2016-06-12T15:24:03.978Z,24.34
2016-06-12T15:25:03.606Z,24.34
2016-06-12T15:26:04.219Z,24.34
2016-06-12T15:27:04.003Z,24.3
2016-06-12T15:28:03.850Z,24.29
2016-06-12T15:29:03.806Z,24.34
2016-06-12T15:30:04.012Z,24.26
2016-06-12T15:31:04.016Z,24.33
2016-06-12T15:32:03.800Z,24.32
2016-06-12T15:33:03.819Z,24.27
2016-06-12T15:34:04.213Z,24.3
2016-06-12T15:35:03.606Z,24.29
2016-06-12T15:36:04.219Z,24.26
2016-06-12T15:37:04.237Z,24.17
2016-06-12T15:38:04.225Z,24.17
2016-06-12T15:39:04.790Z,24.17
2016-06-12T15:40:04.231Z,24.24
2016-06-12T15:41:04.046Z,24.18
2016-06-12T15:42:03.815Z,24.24
2016-06-12T15:43:03.819Z,24.19
2016-06-12T15:44:04.039Z,24.21
2016-06-12T15:45:03.824Z,24.21
2016-06-12T15:46:04.233Z,24.14
2016-06-12T15:47:03.831Z,24.15
2016-06-12T15:48:03.834Z,24.11
2016-06-12T15:49:06.227Z,24.12
2016-06-12T15:50:04.090Z,24.08
2016-06-12T15:51:04.249Z,24.07
2016-06-12T15:52:04.049Z,24.04
2016-06-12T15:53:04.052Z,24.04
2016-06-12T15:54:04.336Z,24.04
2016-06-12T15:55:04.042Z,24.11
2016-06-12T15:56:04.045Z,24.12
2016-06-12T15:57:03.845Z,24.07
2016-06-12T15:58:04.254Z,24.11
2016-06-12T15:59:04.070Z,24.09
2016-06-12T16:00:04.043Z,24.09
2016-06-12T16:01:03.841Z,24.12
2016-06-12T16:02:04.048Z,24.08
2016-06-12T16:03:04.255Z,24.08
2016-06-12T16:04:04.086Z,24.14
2016-06-12T16:05:04.104Z,24.09
2016-06-12T16:06:03.904Z,24.03
2016-06-12T16:07:03.846Z,24.08
2016-06-12T16:08:03.863Z,24.11
2016-06-12T16:09:04.913Z,24.11
2016-06-12T16:10:03.869Z,24.02
2016-06-12T16:11:04.264Z,23.97
2016-06-12T16:12:04.080Z,24.07
2016-06-12T16:13:04.270Z,24
2016-06-12T16:14:04.054Z,24.02
2016-06-12T16:15:04.072Z,24.02
2016-06-12T16:16:04.279Z,23.96
2016-06-12T16:17:04.281Z,24.04
2016-06-12T16:18:04.285Z,24.04
2016-06-12T16:19:04.288Z,24.03
2016-06-12T16:20:03.885Z,23.97
2016-06-12T16:21:04.075Z,23.99
2016-06-12T16:22:04.094Z,24
2016-06-12T16:23:04.284Z,24
2016-06-12T16:24:04.648Z,24.07
2016-06-12T16:25:04.290Z,24.03
2016-06-12T16:26:04.090Z,24.02
2016-06-12T16:27:03.688Z,24.02
2016-06-12T16:28:03.878Z,24.04
2016-06-12T16:29:03.882Z,24.08
2016-06-12T16:30:03.885Z,24
2016-06-12T16:31:04.091Z,24
2016-06-12T16:32:03.906Z,23.99
2016-06-12T16:33:03.894Z,23.94
2016-06-12T16:34:03.881Z,23.99
2016-06-12T16:35:03.900Z,23.99
2016-06-12T16:36:03.904Z,23.97
2016-06-12T16:37:03.906Z,24.04
2016-06-12T16:38:03.894Z,24.07
2016-06-12T16:39:03.553Z,24.03
2016-06-12T16:40:04.306Z,24.07
2016-06-12T16:41:04.309Z,23.96
2016-06-12T16:42:04.312Z,24
2016-06-12T16:43:04.112Z,24
2016-06-12T16:44:04.099Z,24
2016-06-12T16:45:03.899Z,24.07
2016-06-12T16:46:04.105Z,23.96
2016-06-12T16:47:04.108Z,24
2016-06-12T16:48:03.908Z,24.03
2016-06-12T16:49:04.130Z,23.96
2016-06-12T16:50:04.118Z,24
2016-06-12T16:51:03.714Z,23.93
2016-06-12T16:52:03.967Z,24.03
2016-06-12T16:53:04.112Z,24
2016-06-12T16:54:04.943Z,23.97
2016-06-12T16:55:03.727Z,23.94
2016-06-12T16:56:04.324Z,24
2016-06-12T16:57:03.921Z,24.03
2016-06-12T16:58:03.721Z,23.99
2016-06-12T16:59:03.770Z,23.97
2016-06-12T17:00:03.914Z,23.89
2016-06-12T17:01:04.136Z,23.85
2016-06-12T17:02:03.937Z,23.94
2016-06-12T17:03:04.126Z,23.94
2016-06-12T17:04:03.927Z,23.92
2016-06-12T17:05:04.336Z,23.93
2016-06-12T17:06:04.136Z,23.93
2016-06-12T17:07:04.123Z,23.87
2016-06-12T17:08:03.939Z,23.87
2016-06-12T17:09:04.239Z,23.94
2016-06-12T17:10:04.570Z,23.84
2016-06-12T17:11:03.932Z,23.96
2016-06-12T17:12:03.935Z,23.89
2016-06-12T17:13:03.938Z,23.85
2016-06-12T17:14:04.161Z,23.9
2016-06-12T17:15:03.944Z,23.82
2016-06-12T17:16:04.354Z,23.87
2016-06-12T17:17:04.155Z,23.89
2016-06-12T17:18:04.158Z,23.85
2016-06-12T17:19:04.363Z,23.87
2016-06-12T17:20:04.148Z,23.85
2016-06-12T17:21:04.198Z,23.87
2016-06-12T17:22:04.154Z,23.87
2016-06-12T17:23:04.156Z,23.85
2016-06-12T17:24:04.582Z,23.85
2016-06-12T17:25:03.818Z,23.82
2016-06-12T17:26:04.369Z,23.85
2016-06-12T17:27:04.153Z,23.81
2016-06-12T17:28:03.953Z,23.84
2016-06-12T17:29:03.972Z,23.87
2016-06-12T17:30:04.163Z,23.82
2016-06-12T17:31:04.166Z,23.89
2016-06-12T17:32:04.387Z,23.82
2016-06-12T17:33:04.171Z,23.81
2016-06-12T17:34:04.410Z,23.85
2016-06-12T17:35:04.162Z,23.9
2016-06-12T17:36:04.384Z,23.89
2016-06-12T17:37:03.981Z,23.85
2016-06-12T17:38:04.172Z,23.87
2016-06-12T17:39:04.800Z,23.84
2016-06-12T17:40:04.662Z,23.82
2016-06-12T17:41:04.181Z,23.75
2016-06-12T17:42:04.184Z,23.82
2016-06-12T17:43:04.188Z,23.82
2016-06-12T17:44:04.221Z,23.84
2016-06-12T17:45:04.021Z,23.85
2016-06-12T17:46:03.775Z,23.78
2016-06-12T17:47:03.980Z,23.78
2016-06-12T17:48:04.186Z,23.75
2016-06-12T17:49:03.987Z,23.84
2016-06-12T17:50:03.974Z,23.75
2016-06-12T17:51:03.993Z,23.77
2016-06-12T17:52:03.776Z,23.84
2016-06-12T17:53:04.390Z,23.78
2016-06-12T17:54:04.111Z,23.78
2016-06-12T17:55:04.208Z,23.77
2016-06-12T17:56:04.242Z,23.75
2016-06-12T17:57:03.995Z,23.74
2016-06-12T17:58:04.248Z,23.75
2016-06-12T17:59:04.408Z,23.75
2016-06-12T18:00:04.443Z,23.71
2016-06-12T18:01:04.211Z,23.77
2016-06-12T18:02:04.198Z,23.74
2016-06-12T18:03:03.999Z,23.77
2016-06-12T18:04:04.424Z,23.71
2016-06-12T18:05:03.817Z,23.72
2016-06-12T18:06:04.414Z,23.74
2016-06-12T18:07:04.214Z,23.72
2016-06-12T18:08:04.421Z,23.71
2016-06-12T18:09:04.424Z,23.71
2016-06-12T18:10:04.458Z,23.7
2016-06-12T18:11:04.023Z,23.63
2016-06-12T18:12:04.214Z,23.7
2016-06-12T18:13:04.420Z,23.67
2016-06-12T18:14:04.016Z,23.63
2016-06-12T18:15:04.425Z,23.71
2016-06-12T18:16:04.226Z,23.7
2016-06-12T18:17:04.026Z,23.67
2016-06-12T18:18:04.217Z,23.72
2016-06-12T18:19:04.016Z,23.62
2016-06-12T18:20:04.426Z,23.66
2016-06-12T18:21:03.832Z,23.6
2016-06-12T18:22:04.281Z,23.59
2016-06-12T18:23:04.339Z,23.66
2016-06-12T18:24:04.866Z,23.57
2016-06-12T18:25:04.409Z,23.6
2016-06-12T18:26:04.692Z,23.6
2016-06-12T18:27:04.647Z,23.6
2016-06-12T18:28:04.460Z,23.62
2016-06-12T18:29:04.494Z,23.6
2016-06-12T18:30:04.479Z,23.6
2016-06-12T18:31:04.291Z,23.63
2016-06-12T18:32:04.377Z,23.59
2016-06-12T18:33:04.510Z,23.62
2016-06-12T18:34:04.332Z,23.6
2016-06-12T18:35:04.527Z,23.52
2016-06-12T18:36:04.332Z,23.63
2016-06-12T18:37:04.540Z,23.6
2016-06-12T18:38:04.747Z,23.52
2016-06-12T18:39:04.143Z,23.47
2016-06-12T18:40:04.399Z,23.5
2016-06-12T18:41:04.153Z,23.52
2016-06-12T18:42:04.751Z,23.57
2016-06-12T18:43:04.613Z,23.53
2016-06-12T18:44:04.554Z,23.53
2016-06-12T18:45:04.401Z,23.53
2016-06-12T18:46:04.561Z,23.56
2016-06-12T18:47:04.549Z,23.57
2016-06-12T18:48:04.396Z,23.52
2016-06-12T18:49:04.150Z,23.56
2016-06-12T18:50:04.373Z,23.52
2016-06-12T18:51:04.562Z,23.55
2016-06-12T18:52:04.768Z,23.56
2016-06-12T18:53:04.569Z,23.56
2016-06-12T18:54:04.994Z,23.59
2016-06-12T18:55:04.606Z,23.63
2016-06-12T18:56:04.562Z,23.57
2016-06-12T18:57:04.565Z,23.6
2016-06-12T18:58:04.365Z,23.57
2016-06-12T18:59:04.368Z,23.48
2016-06-12T19:00:04.574Z,23.5
2016-06-12T19:01:04.360Z,23.57
2016-06-12T19:02:04.580Z,23.55
2016-06-12T19:03:04.600Z,23.47
2016-06-12T19:04:04.368Z,23.59
2016-06-12T19:05:04.575Z,23.59
2016-06-12T19:06:04.375Z,23.56
2016-06-12T19:07:04.378Z,23.48
2016-06-12T19:08:04.567Z,23.57
2016-06-12T19:09:05.336Z,23.5
2016-06-12T19:10:04.949Z,23.57
2016-06-12T19:11:04.390Z,23.5
2016-06-12T19:12:04.377Z,23.56
2016-06-12T19:13:04.380Z,23.41
2016-06-12T19:14:04.384Z,23.42
2016-06-12T19:15:04.637Z,23.38
2016-06-12T19:16:04.389Z,23.42
2016-06-12T19:17:04.393Z,23.42
2016-06-12T19:18:04.802Z,23.41
2016-06-12T19:19:04.382Z,23.4
2016-06-12T19:20:04.590Z,23.42
2016-06-12T19:21:04.796Z,23.4
2016-06-12T19:22:04.799Z,23.4
2016-06-12T19:23:04.192Z,23.37
2016-06-12T19:24:04.789Z,23.45
2016-06-12T19:25:05.261Z,23.42
2016-06-12T19:26:04.795Z,23.45
2016-06-12T19:27:04.407Z,23.38
2016-06-12T19:28:04.801Z,23.41
2016-06-12T19:29:04.398Z,23.35
2016-06-12T19:30:04.605Z,23.4
2016-06-12T19:31:04.607Z,23.4
2016-06-12T19:32:04.204Z,23.38
2016-06-12T19:33:04.191Z,23.28
2016-06-12T19:34:04.194Z,23.32
2016-06-12T19:35:04.604Z,23.35
2016-06-12T19:36:04.607Z,23.26
2016-06-12T19:37:04.610Z,23.35
2016-06-12T19:38:04.238Z,23.32
2016-06-12T19:39:04.414Z,23.25
2016-06-12T19:40:04.416Z,23.22
2016-06-12T19:41:04.608Z,23.26
2016-06-12T19:42:04.422Z,23.32
2016-06-12T19:43:04.660Z,23.24
2016-06-12T19:44:04.398Z,23.29
2016-06-12T19:45:04.416Z,23.25
2016-06-12T19:46:04.809Z,23.28
2016-06-12T19:47:04.407Z,23.32
2016-06-12T19:48:04.613Z,23.26
2016-06-12T19:49:04.615Z,23.26
2016-06-12T19:50:04.822Z,23.19
2016-06-12T19:51:04.622Z,23.25
2016-06-12T19:52:04.625Z,23.21
2016-06-12T19:53:04.409Z,23.16
2016-06-12T19:54:04.631Z,23.21
2016-06-12T19:55:05.244Z,23.21
2016-06-12T19:56:04.621Z,23.16
2016-06-12T19:57:04.828Z,23.22
2016-06-12T19:58:04.627Z,23.16
2016-06-12T19:59:04.818Z,23.24
2016-06-12T20:00:04.213Z,23.18
2016-06-12T20:01:04.434Z,23.18
2016-06-12T20:02:04.422Z,23.16
2016-06-12T20:03:04.627Z,23.16
2016-06-12T20:04:04.459Z,23.14
2016-06-12T20:05:04.634Z,23.16
2016-06-12T20:06:04.840Z,23.18
2016-06-12T20:07:04.687Z,23.14
2016-06-12T20:08:04.627Z,23.16
2016-06-12T20:09:04.224Z,23.14
2016-06-12T20:10:04.352Z,23.16
2016-06-12T20:11:04.840Z,23.18
2016-06-12T20:12:04.640Z,23.14
2016-06-12T20:13:04.424Z,23.14
2016-06-12T20:14:04.630Z,23.14
2016-06-12T20:15:04.649Z,23.18
2016-06-12T20:16:04.433Z,23.16
2016-06-12T20:17:04.843Z,23.16
2016-06-12T20:18:04.643Z,23.21
2016-06-12T20:19:04.646Z,23.21
2016-06-12T20:20:04.445Z,23.14
2016-06-12T20:21:04.230Z,23.21
2016-06-12T20:22:04.858Z,23.16
2016-06-12T20:23:04.440Z,23.12
2016-06-12T20:24:04.442Z,23.07
2016-06-12T20:25:04.977Z,23.12
2016-06-12T20:26:04.495Z,23.12
2016-06-12T20:27:04.842Z,23.1
2016-06-12T20:28:04.455Z,23.06
2016-06-12T20:29:04.661Z,23.04
2016-06-12T20:30:04.445Z,23.01
2016-06-12T20:31:04.651Z,23.06
2016-06-12T20:32:04.857Z,23.09
2016-06-12T20:33:04.657Z,23.06
2016-06-12T20:34:04.863Z,23.12
2016-06-12T20:35:04.663Z,23.07
2016-06-12T20:36:04.651Z,23.04
2016-06-12T20:37:04.452Z,22.99
2016-06-12T20:38:04.454Z,23.04
2016-06-12T20:39:04.660Z,23.04
2016-06-12T20:40:04.461Z,23.06
2016-06-12T20:41:04.682Z,22.97
2016-06-12T20:42:04.450Z,23.04
2016-06-12T20:43:04.906Z,23.04
2016-06-12T20:44:04.457Z,22.96
2016-06-12T20:45:04.304Z,22.97
2016-06-12T20:46:04.869Z,22.99
2016-06-12T20:47:04.669Z,22.94
2016-06-12T20:48:04.861Z,23.01
2016-06-12T20:49:04.659Z,22.94
2016-06-12T20:50:04.460Z,22.94
2016-06-12T20:51:04.666Z,23
2016-06-12T20:52:04.466Z,22.91
2016-06-12T20:53:04.251Z,22.99
2016-06-12T20:54:04.659Z,22.91
2016-06-12T20:55:04.474Z,22.86
2016-06-12T20:56:04.666Z,22.94
2016-06-12T20:57:04.872Z,22.99
2016-06-12T20:58:04.671Z,22.94
2016-06-12T20:59:04.269Z,22.92
2016-06-12T21:00:04.662Z,22.96
2016-06-12T21:01:04.509Z,22.96
2016-06-12T21:02:04.481Z,22.84
2016-06-12T21:03:04.671Z,22.96
2016-06-12T21:04:04.472Z,22.92
2016-06-12T21:05:04.662Z,22.86
2016-06-12T21:06:04.680Z,22.96
2016-06-12T21:07:04.669Z,22.89
2016-06-12T21:08:04.484Z,22.85
2016-06-12T21:09:04.878Z,22.84
2016-06-12T21:10:04.724Z,22.97
2016-06-12T21:11:04.681Z,22.86
2016-06-12T21:12:04.465Z,22.86
2016-06-12T21:13:04.671Z,22.82
2016-06-12T21:14:04.690Z,22.94
2016-06-12T21:15:04.333Z,22.89
2016-06-12T21:16:04.477Z,22.89
2016-06-12T21:17:04.683Z,22.86
2016-06-12T21:18:04.483Z,22.86
2016-06-12T21:19:04.690Z,22.86
2016-06-12T21:20:04.693Z,22.96
2016-06-12T21:21:04.477Z,22.91
2016-06-12T21:22:04.682Z,22.91
2016-06-12T21:23:04.686Z,22.86
2016-06-12T21:24:04.689Z,22.88
2016-06-12T21:25:04.911Z,22.94
2016-06-12T21:26:04.352Z,22.92
2016-06-12T21:27:04.495Z,22.91
2016-06-12T21:28:04.483Z,22.92
2016-06-12T21:29:04.689Z,22.91
2016-06-12T21:30:04.692Z,22.82
2016-06-12T21:31:04.493Z,22.86
2016-06-12T21:32:04.511Z,22.79
2016-06-12T21:33:04.889Z,22.84
2016-06-12T21:34:04.892Z,22.86
2016-06-12T21:35:04.894Z,22.81
2016-06-12T21:36:04.492Z,22.85
2016-06-12T21:37:04.901Z,22.91
2016-06-12T21:38:04.700Z,22.85
2016-06-12T21:39:04.485Z,22.84
2016-06-12T21:40:04.535Z,22.82
2016-06-12T21:41:04.366Z,22.84
2016-06-12T21:42:04.916Z,22.84
2016-06-12T21:43:04.748Z,22.88
2016-06-12T21:44:04.907Z,22.79
2016-06-12T21:45:04.691Z,22.85
2016-06-12T21:46:04.303Z,22.81
2016-06-12T21:47:04.495Z,22.85
2016-06-12T21:48:04.904Z,22.84
2016-06-12T21:49:04.500Z,22.85
2016-06-12T21:50:04.707Z,22.82
2016-06-12T21:51:04.913Z,22.73
2016-06-12T21:52:04.900Z,22.75
2016-06-12T21:53:04.700Z,22.76
2016-06-12T21:54:04.516Z,22.85
2016-06-12T21:55:04.519Z,22.75
2016-06-12T21:56:04.506Z,22.73
2016-06-12T21:57:04.337Z,22.73
2016-06-12T21:58:04.701Z,22.73
2016-06-12T21:59:04.907Z,22.73
2016-06-12T22:00:04.487Z,22.73
2016-06-12T22:01:04.552Z,22.73
2016-06-12T22:02:04.541Z,22.78
2016-06-12T22:03:04.512Z,22.7
2016-06-12T22:04:04.719Z,22.78
2016-06-12T22:05:04.909Z,22.71
2016-06-12T22:06:04.709Z,22.78
2016-06-12T22:07:04.509Z,22.76
2016-06-12T22:08:04.512Z,22.66
2016-06-12T22:09:04.905Z,22.78
2016-06-12T22:10:04.925Z,22.64
2016-06-12T22:11:04.505Z,22.61
2016-06-12T22:12:04.711Z,22.64
2016-06-12T22:13:04.496Z,22.64
2016-06-12T22:14:04.311Z,22.64
2016-06-12T22:15:04.503Z,22.63
2016-06-12T22:16:04.771Z,22.73
2016-06-12T22:17:04.915Z,22.6
2016-06-12T22:18:04.511Z,22.64
2016-06-12T22:19:04.515Z,22.73
2016-06-12T22:20:04.924Z,22.66
2016-06-12T22:21:04.708Z,22.71
2016-06-12T22:22:04.508Z,22.64
2016-06-12T22:23:04.714Z,22.71
2016-06-12T22:24:04.717Z,22.6
2016-06-12T22:25:05.251Z,22.67
2016-06-12T22:26:04.740Z,22.63
2016-06-12T22:27:04.508Z,22.57
2016-06-12T22:28:04.932Z,22.73
2016-06-12T22:29:04.717Z,22.61
2016-06-12T22:30:04.314Z,22.61
2016-06-12T22:31:04.723Z,22.75
2016-06-12T22:32:04.726Z,22.64
2016-06-12T22:33:04.775Z,22.7
2016-06-12T22:34:04.717Z,22.6
2016-06-12T22:35:04.720Z,22.67
2016-06-12T22:36:04.723Z,22.6
2016-06-12T22:37:04.320Z,22.61
2016-06-12T22:38:04.730Z,22.61